Latest Coastal Weather Observations for Albany Airport

IDW60701

Issued at 1:42 am WST Tuesday 23 December 2014 (issued every 10 minutes, with the page automatically refreshed every 10 minutes)

About coastal observations | Map of coastal stations | Coastal observations for WA | Marine services | Other Formats
Station Details ID: 009999 Name: ALBANY AIRPORT Lat: -34.94 Lon: 117.82 Height: 68.4 m
Data from the previous 72 hours. | See also: Recent months at Albany Airport
Date/Time
WST
Temp

°C
Wind Pressure Rain
since 9am
mm
Weather Cloud Vis
km
Sea
Height
m
Swell
Dir
 
Speed
knots
Gust
knots
hPa Trend Height
m
Period
s
Dir
23/01:30am 14.4 SE 8 10 1020.7 - 0.0 - Partly cloudy 10 - - - -
23/01:00am 14.7 SE 7 9 1020.8 - 0.0 - Partly cloudy 10 - - - -
23/12:30am 15.1 SE 9 11 1021.0 - 0.0 - Partly cloudy 10 - - - -
23/12:00am 15.5 SSE 8 12 1021.2 - 0.0 - Cloudy 10 - - - -
 
Date/Time
WST
Temp

°C
Wind Pressure Rain
since 9am
mm
Weather Cloud Vis
km
Sea
Height
m
Swell
Dir
 
Speed
knots
Gust
knots
hPa Trend Height
m
Period
s
Dir
22/11:30pm 15.6 SSE 8 11 1021.2 - 0.0 - Partly cloudy 10 - - - -
22/11:00pm 14.7 SSE 5 7 1021.2 - 0.0 - Partly cloudy 10 - - - -
22/10:30pm 14.8 SSE 5 7 1021.3 - 0.0 - Partly cloudy 10 - - - -
22/10:00pm 14.9 SSE 5 6 1021.3 - 0.0 - Partly cloudy 10 - - - -
22/09:30pm 14.1 SSE 4 5 1021.1 - 0.0 - Partly cloudy 10 - - - -
22/09:00pm 13.8 SSE 6 7 1020.9 - 0.0 - - 10 - - - -
22/08:30pm 13.8 SSE 5 6 1020.8 - 0.0 - - 10 - - - -
22/08:00pm 14.5 SSE 5 7 1020.7 - 0.0 - - 10 - - - -
22/07:30pm 15.0 S 5 7 1020.5 - 0.0 - Partly cloudy 10 - - - -
22/07:00pm 15.8 S 8 13 1020.3 - 0.0 - - 10 - - - -
22/06:30pm 16.2 S 9 12 1019.8 - 0.0 - Partly cloudy 10 - - - -
22/06:00pm 16.6 S 12 17 1019.6 - 0.0 - Cloudy 10 - - - -
22/05:30pm 17.6 S 11 15 1019.3 - 0.0 - Partly cloudy 10 - - - -
22/05:00pm 17.9 S 11 16 1018.9 - 0.0 - Mostly clear 10 - - - -
22/04:30pm 18.4 S 11 16 1018.9 - 0.0 - Mostly clear 10 - - - -
22/04:00pm 20.0 S 10 15 1018.7 - 0.0 - Mostly clear 10 - - - -
22/03:30pm 19.6 S 13 19 1018.8 - 0.0 - Mostly clear 10 - - - -
22/03:00pm 18.9 S 11 16 1018.7 R 0.0 Fine Partly cloudy 30 - - - -
22/02:30pm 21.0 SSW 12 17 1018.8 - 0.0 - Mostly clear 10 - - - -
22/02:00pm 20.5 S 11 15 1018.6 - 0.0 - Mostly clear 10 - - - -
22/01:30pm 20.2 S 11 17 1018.7 - 0.0 - Mostly clear 10 - - - -
22/01:00pm 20.9 S 8 14 1018.7 - 0.0 - Mostly clear 10 - - - -
22/12:30pm 21.2 SW 8 13 1018.9 - 0.0 - Mostly clear 10 - - - -
22/12:00pm 19.8 SSW 9 14 1019.3 F 0.0 Fine Partly cloudy 40 - - - -
22/11:30am 19.2 SSW 9 12 1019.5 - 0.0 - Mostly clear 10 - - - -
22/11:00am 19.2 S 9 12 1019.6 - 0.0 - Mostly clear 10 - - - -
22/10:30am 18.8 SSE 6 11 1019.8 - 0.0 - Mostly clear 10 - - - -
22/10:00am 18.2 SW 7 11 1020.0 - 0.0 - Mostly clear 10 - - - -
22/09:30am 17.8 SW 6 11 1020.2 - 0.0 - Mostly clear 10 - - - -
22/09:00am 17.4 S 6 9 1020.2 R 0.2 Fine Mostly cloudy 30 - - - -
22/08:30am 16.6 S 3 6 1020.1 - 0.2 - Mostly clear 10 - - - -
22/08:00am 16.4 S 4 6 1020.2 - 0.2 - Mostly clear 10 - - - -
22/07:30am 15.9 SSE 5 7 1020.2 - 0.2 - Mostly clear 10 - - - -
22/07:00am 15.6 S 4 6 1020.1 - 0.2 - Mostly clear 10 - - - -
22/06:30am 15.0 S 3 5 1019.8 - 0.2 - Mostly clear 10 - - - -
22/06:00am 14.3 SSW 3 4 1019.5 R 0.2 Fine Mostly cloudy 30 - - - -
22/05:30am 14.2 S 4 7 1019.2 - 0.2 - Cloudy 10 - - - -
22/05:00am 13.7 S 4 5 1019.0 - 0.2 - Cloudy 10 - - - -
22/04:30am 13.6 SSW 5 6 1018.8 - 0.2 - Cloudy 10 - - - -
22/04:00am 14.4 S 6 7 1018.6 - 0.2 - Cloudy 10 - - - -
22/03:30am 13.7 SSW 5 6 1018.5 - 0.2 - Cloudy 10 - - - -
22/03:00am 13.7 S 4 5 1018.6 - 0.2 - Cloudy 10 - - - -
22/02:30am 13.5 CALM 0 0 1018.7 - 0.2 - Cloudy 10 - - - -
22/02:00am 13.6 SW 3 4 1018.7 - 0.2 - Cloudy 10 - - - -
22/01:30am 13.7 CALM 0 4 1019.0 - 0.2 - Cloudy 10 - - - -
22/01:00am 13.7 CALM 0 0 1019.2 - 0.2 - Cloudy 10 - - - -
22/12:30am 13.6 S 3 4 1019.4 - 0.2 - Cloudy 10 - - - -
22/12:00am 13.7 S 3 4 1019.6 - 0.2 - Cloudy 10 - - - -
 
Date/Time
WST
Temp

°C
Wind Pressure Rain
since 9am
mm
Weather Cloud Vis
km
Sea
Height
m
Swell
Dir
 
Speed
knots
Gust
knots
hPa Trend Height
m
Period
s
Dir
21/11:30pm 13.1 S 4 5 1019.6 - 0.2 - Cloudy 10 - - - -
21/11:00pm 12.3 S 4 5 1020.1 - 0.2 - Cloudy 10 - - - -
21/10:30pm 11.2 SSW 5 5 1020.2 - 0.2 - Partly cloudy 10 - - - -
21/10:00pm 12.2 S 4 5 1020.4 - 0.2 - Partly cloudy 10 - - - -
21/09:30pm 12.9 S 5 6 1020.4 - 0.2 - Partly cloudy 10 - - - -
21/09:00pm 13.6 S 5 6 1020.4 - 0.2 - Cloudy 10 - - - -
21/08:30pm 14.0 S 5 5 1020.4 - 0.2 - Partly cloudy 10 - - - -
21/08:00pm 14.6 SSE 4 6 1020.2 - 0.2 - Cloudy 10 - - - -
21/07:30pm 14.8 S 5 7 1020.3 - 0.2 - Partly cloudy 10 - - - -
21/07:00pm 15.6 SSE 8 11 1020.1 - 0.2 - Cloudy 10 - - - -
21/06:30pm 16.1 SSE 7 10 1019.9 - 0.2 - Partly cloudy 10 - - - -
21/06:00pm 16.5 SSE 7 11 1019.7 - 0.2 - Cloudy 10 - - - -
21/05:30pm 16.5 SSE 8 11 1019.7 - 0.2 - Cloudy 10 - - - -
21/05:00pm 16.9 SSE 8 11 1019.6 - 0.2 - Partly cloudy 10 - - - -
21/04:30pm 17.2 SSE 10 14 1019.5 - 0.2 - Partly cloudy 10 - - - -
21/04:00pm 17.4 S 8 13 1019.5 - 0.2 - Partly cloudy 10 - - - -
21/03:30pm 17.4 SSE 8 12 1019.5 - 0.2 - Mostly cloudy 10 - - - -
21/03:00pm 17.8 SE 10 13 1019.4 F 0.2 Fine Mostly cloudy 30 - - - -
21/02:30pm 18.5 SE 12 14 1019.6 - 0.2 - Mostly cloudy 10 - - - -
21/02:00pm 18.7 SSE 9 15 1019.8 - 0.0 - Mostly cloudy 10 - - - -
21/01:30pm 18.2 SSE 9 13 1020.0 - 0.0 - Mostly cloudy 10 - - - -
21/01:00pm 17.8 S 12 15 1020.2 - 0.0 - Mostly cloudy 10 - - - -
21/12:30pm 18.4 SE 9 13 1020.2 - 0.0 - Mostly cloudy 10 - - - -
21/12:00pm 18.0 SE 8 13 1020.3 R 0.0 Fine Mostly cloudy 25 - - - -
21/11:30am 18.0 SE 8 12 1020.4 - 0.0 - Mostly cloudy 10 - - - -
21/11:00am 17.6 S 8 11 1020.6 - 0.0 - Mostly cloudy 10 - - - -
21/10:30am 17.4 SSE 9 13 1020.8 - 0.0 - Mostly cloudy 10 - - - -
21/10:00am 16.8 SSE 9 12 1020.9 - 0.0 - Mostly cloudy 10 - - - -
21/09:30am 16.5 SSE 9 14 1020.8 - 0.0 - Mostly cloudy 10 - - - -
21/09:00am 16.3 SSE 10 14 1020.9 R 2.8 Fine Mostly cloudy 20 - - - -
21/08:30am 16.1 SSE 7 11 1020.8 - 2.8 - Mostly cloudy 10 - - - -
21/08:00am 15.4 S 9 12 1020.7 - 2.8 - Mostly cloudy 10 - - - -
21/07:30am 15.1 S 6 9 1020.5 - 2.8 - Mostly cloudy 10 - - - -
21/07:00am 14.8 S 7 9 1020.1 - 2.8 - Mostly cloudy 10 - - - -
21/06:30am 14.4 S 6 9 1019.9 - 2.8 - Mostly cloudy 10 - - - -
21/06:00am 14.3 S 7 11 1019.6 R 2.8 Fine Mostly cloudy 20 - - - -
21/05:30am 13.9 S 6 9 1019.3 - 2.8 - Partly cloudy 10 - - - -
21/05:00am 14.1 S 8 11 1019.0 - 2.8 - Partly cloudy 10 - - - -
21/04:30am 14.1 S 7 10 1018.5 - 2.8 - Partly cloudy 10 - - - -
21/04:24am 14.1 S 8 10 1018.5 - 2.8 - Partly cloudy 10 - - - -
21/04:14am 14.1 S 8 12 1018.4 - 2.8 - Partly cloudy 6 - - - -
21/04:00am 14.2 S 8 12 1018.2 - 2.8 - Partly cloudy 10 - - - -
21/03:30am 14.2 S 8 12 1018.0 - 2.8 - Partly cloudy 10 - - - -
21/03:29am 14.2 S 8 12 1018.0 - 2.8 - Partly cloudy 10 - - - -
21/03:09am 14.3 S 10 16 1017.8 - 2.8 - Partly cloudy 5 - - - -
21/03:07am 14.3 S 9 16 1017.7 - 2.8 - Partly cloudy 6 - - - -
21/03:04am 14.3 S 9 13 1017.7 - 2.8 - Partly cloudy 9 - - - -
21/03:00am 14.2 S 8 11 1017.7 - 2.8 - Cloudy 9 - - - -
21/02:58am 14.3 S 8 11 1017.8 - 2.8 - Partly cloudy 10 - - - -
21/02:51am 14.3 S 7 11 1017.8 - 2.8 - Partly cloudy 5 - - - -
21/02:39am 14.4 S 9 12 1017.9 - 2.6 - Partly cloudy 6 - - - -
21/02:37am 14.4 S 8 12 1017.9 - 2.6 - Partly cloudy 10 - - - -
21/02:36am 14.4 S 8 12 1017.8 - 2.6 - Partly cloudy 10 - - - -
21/02:33am 14.4 S 9 12 1017.8 - 2.6 - Partly cloudy 10 - - - -
21/02:30am 14.4 S 9 14 1017.8 - 2.6 - Partly cloudy 10 - - - -
21/02:00am 14.6 S 10 14 1017.9 - 2.4 - Partly cloudy 3 - - - -
21/01:37am 14.8 S 8 13 1017.8 - 2.0 - Partly cloudy 5 - - - -
21/01:36am 14.7 S 8 13 1017.8 - 2.0 - Partly cloudy 5 - - - -
21/01:30am 14.7 S 10 14 1017.8 - 2.0 - Partly cloudy 4 - - - -
21/01:10am 14.8 S 8 12 1017.8 - 1.6 - Partly cloudy 6 - - - -
21/01:08am 14.9 S 8 13 1017.8 - 1.6 - Partly cloudy 9 - - - -
21/01:00am 15.0 S 8 13 1017.8 - 1.6 - Partly cloudy 8 - - - -
21/12:57am 15.0 S 7 11 1017.8 - 1.6 - Partly cloudy 6 - - - -
21/12:51am 15.2 S 7 11 1017.8 - 1.6 - Partly cloudy 10 - - - -
21/12:30am 15.2 S 9 11 1017.9 - 1.6 - Partly cloudy 10 - - - -
21/12:27am 15.2 S 8 11 1017.8 - 1.6 - Partly cloudy 10 - - - -
21/12:13am 15.2 S 8 10 1017.9 - 1.6 - Partly cloudy 6 - - - -
21/12:09am 15.2 S 8 11 1017.9 - 1.6 - Partly cloudy 9 - - - -
21/12:00am 15.2 S 8 15 1017.9 - 1.6 - Cloudy 7 - - - -
 
Date/Time
WST
Temp

°C
Wind Pressure Rain
since 9am
mm
Weather Cloud Vis
km
Sea
Height
m
Swell
Dir
 
Speed
knots
Gust
knots
hPa Trend Height
m
Period
s
Dir
20/11:42pm 15.6 S 9 13 1017.9 - 1.4 - Partly cloudy 6 - - - -
20/11:33pm 15.7 S 7 10 1017.8 - 1.4 - Partly cloudy 10 - - - -
20/11:30pm 15.7 S 7 12 1017.8 - 1.4 - Partly cloudy 10 - - - -
20/11:02pm 15.8 S 8 11 1017.7 - 1.4 - Partly cloudy 9 - - - -
20/11:00pm 15.8 S 7 11 1017.8 - 1.4 - Partly cloudy 10 - - - -
20/10:30pm 16.5 S 8 12 1017.6 - 1.4 - Partly cloudy 10 - - - -
20/10:00pm 16.7 S 9 14 1017.6 - 1.4 - Partly cloudy 10 - - - -
20/09:30pm 16.5 S 9 13 1017.5 - 1.4 - Partly cloudy 10 - - - -
20/09:00pm 16.6 S 9 13 1017.2 - 1.4 - Cloudy 10 - - - -
20/08:30pm 16.6 SSE 10 14 1016.9 - 1.4 - Partly cloudy 10 - - - -
20/08:00pm 16.7 S 10 16 1016.6 - 1.4 - Partly cloudy 10 - - - -
20/07:30pm 16.6 S 12 19 1016.4 - 1.4 - Partly cloudy 10 - - - -
20/07:00pm 17.0 S 9 14 1016.0 - 1.4 - Partly cloudy 10 - - - -
20/06:30pm 17.3 S 12 19 1015.5 - 1.4 - Partly cloudy 10 - - - -
20/06:00pm 18.1 S 11 17 1014.6 - 1.4 - Cloudy 10 - - - -
20/05:30pm 18.8 S 13 18 1014.1 - 1.4 - Mostly clear 10 - - - -
20/05:00pm 19.3 S 12 17 1013.8 - 1.4 - Mostly clear 10 - - - -
20/04:30pm 19.5 S 14 20 1013.5 - 1.4 - Mostly clear 10 - - - -
20/04:00pm 18.7 S 14 19 1013.4 - 1.4 - Mostly clear 10 - - - -
20/03:30pm 19.8 S 14 22 1013.3 - 1.4 - Mostly clear 10 - - - -
20/03:00pm 20.0 S 13 17 1013.3 R 1.4 Recent precip. Mostly cloudy 20 - - - -
20/02:30pm 19.1 S 14 21 1013.0 - 1.4 - Partly cloudy 10 - - - -
20/02:00pm 18.0 S 14 21 1013.1 - 1.4 - Partly cloudy 10 - - - -
20/01:30pm 17.8 S 11 19 1013.3 - 1.4 - Partly cloudy 10 - - - -
20/01:00pm 17.4 S 12 19 1012.5 - 1.4 - Partly cloudy 10 - - - -
20/12:30pm 17.7 S 13 19 1011.8 - 1.4 - Partly cloudy 10 - - - -
20/12:00pm 17.2 S 12 19 1011.4 R 0.2 Thunderstorm Mostly cloudy 6 - - - -
20/11:30am 17.1 S 12 17 1011.2 - 0.0 Showers Mostly cloudy 10 - - - -
20/11:00am 18.1 S 10 15 1011.1 - 0.0 Thunderstorm Mostly cloudy 10 - - - -
20/10:30am 18.2 SE 12 19 1010.6 - 0.0 - Mostly cloudy 10 - - - -
20/10:00am 18.6 S 9 13 1010.9 - 0.0 Thunder Mostly cloudy 9 - - - -
20/09:30am 17.8 SE 13 18 1010.0 - 0.0 Thunderstorm Partly cloudy 6 - - - -
20/09:00am 18.5 S 9 14 1010.8 R 0.0 Thunderstorm Mostly cloudy 6 - - - -
20/08:30am 19.8 SSE 9 13 1010.8 - 0.0 Thunder Partly cloudy 10 - - - -
20/08:00am 20.0 SE 11 14 1009.9 - 0.0 - Partly cloudy 10 - - - -
20/07:30am 19.7 SE 10 14 1010.3 - 0.0 - Partly cloudy 10 - - - -
20/07:00am 19.3 SE 8 11 1010.4 - 0.0 - Partly cloudy 10 - - - -
20/06:30am 19.0 SE 7 8 1010.6 - 0.0 - Mostly cloudy 10 - - - -
20/06:00am 18.3 ESE 8 11 1010.2 F 0.0 Fine Mostly cloudy 20 - - - -
20/05:30am 17.6 ESE 7 9 1010.2 - 0.0 - Partly cloudy - - - - -
20/05:00am 17.0 SE 6 7 1010.1 - 0.0 - Partly cloudy - - - - -
20/04:48am 16.9 SSE 5 6 1010.1 - 0.0 - Partly cloudy - - - - -
20/04:30am 16.8 ESE 7 9 1009.9 - 0.0 - - - - - - -
20/04:00am 16.4 SE 5 7 1009.7 - 0.0 - - - - - - -
20/03:30am 15.9 ESE 6 7 1009.8 - 0.0 - - - - - - -
20/03:00am 16.3 SSE 6 7 1010.0 - 0.0 - - - - - - -
20/02:30am 16.8 SE 7 11 1010.3 - 0.0 - - - - - - -
20/02:00am 16.5 E 6 8 1011.1 - 0.0 - - - - - - -

Other Formats:

Comma delimited format used in spreadsheet applications
http://www.bom.gov.au/fwo/IDW60701/IDW60701.94802.axf

JavaScript Object Notation format (JSON) in row-major order
http://www.bom.gov.au/fwo/IDW60701/IDW60701.94802.json